Villavicencio, Villavicencio La Vanguardia Airport (SKVV)

NameVillavicencio La Vanguardia Airport
CityVillavicencio
CountryColombia
ICAOSKVV
IATAVVC
Altitude425 m
CoordinatesGoogle Map
Live Air TrafficLiveATC.net
METARSKVV 191900Z 03012KT 9999 SCT020 SCT090 31/21 A2983
2019-11-19 19:00:00 Wind: North-Northeast (30°) 6.17 m/s - Visibility: > 10000 m - Temperature: 31 °C - Dew point: 21 °C - Humidity: 55.2% - Pressure: 1010.16 hPa

Sorry, no flights used the airport in this database.